createdAt,value
2017-02-19T00:00:41.309Z,97.47
2017-02-19T00:01:41.851Z,97.58
2017-02-19T00:02:42.371Z,97.58
2017-02-19T00:03:42.905Z,97.58
2017-02-19T00:04:43.434Z,97.45
2017-02-19T00:05:43.973Z,97.34
2017-02-19T00:06:44.495Z,97.12
2017-02-19T00:07:45.018Z,96.83
2017-02-19T00:08:45.550Z,96.77
2017-02-19T00:09:46.078Z,96.85
2017-02-19T00:10:46.616Z,96.96
2017-02-19T00:11:47.149Z,97.21
2017-02-19T00:12:47.684Z,97.31
2017-02-19T00:13:48.218Z,97.23
2017-02-19T00:14:48.754Z,97.23
2017-02-19T00:15:49.290Z,97.12
2017-02-19T00:16:49.817Z,97.31
2017-02-19T00:17:50.362Z,97.39
2017-02-19T00:18:50.886Z,97.58
2017-02-19T00:19:51.413Z,97.69
2017-02-19T00:20:51.945Z,97.64
2017-02-19T00:21:52.624Z,97.47
2017-02-19T00:22:53.004Z,97.28
2017-02-19T00:23:53.717Z,96.88
2017-02-19T00:24:54.067Z,96.61
2017-02-19T00:25:54.592Z,96.55
2017-02-19T00:26:55.129Z,96.20
2017-02-19T00:27:55.684Z,96.23
2017-02-19T00:28:56.931Z,96.15
2017-02-19T00:29:56.712Z,95.80
2017-02-19T00:30:57.247Z,95.10
2017-02-19T00:31:57.779Z,94.61
2017-02-19T00:32:58.309Z,94.53
2017-02-19T00:33:58.843Z,94.64
2017-02-19T00:34:59.372Z,94.88
2017-02-19T00:35:59.899Z,95.01
2017-02-19T00:37:00.440Z,94.86
2017-02-19T00:38:00.972Z,95.56
2017-02-19T00:39:01.497Z,95.53
2017-02-19T00:40:02.026Z,95.31
2017-02-19T00:41:02.564Z,95.12
2017-02-19T00:42:03.088Z,95.07
2017-02-19T00:43:03.618Z,95.26
2017-02-19T00:44:04.148Z,95.47
2017-02-19T00:45:04.682Z,95.83
2017-02-19T00:46:05.222Z,95.01
2017-02-19T00:47:05.891Z,94.93
2017-02-19T00:48:06.273Z,94.61
2017-02-19T00:49:06.804Z,94.56
2017-02-19T00:50:07.335Z,94.59
2017-02-19T00:51:07.867Z,94.64
2017-02-19T00:52:08.398Z,94.59
2017-02-19T00:53:08.932Z,94.40
2017-02-19T00:54:09.466Z,94.10
2017-02-19T00:55:10.001Z,93.85
2017-02-19T00:56:10.536Z,94.45
2017-02-19T00:57:11.106Z,94.91
2017-02-19T00:58:11.600Z,95.10
2017-02-19T00:59:12.131Z,95.34
2017-02-19T01:00:12.656Z,95.37
2017-02-19T01:01:13.191Z,94.96
2017-02-19T01:02:13.788Z,95.34
2017-02-19T01:03:14.253Z,95.61
2017-02-19T01:04:14.784Z,95.88
2017-02-19T01:05:15.315Z,95.98
2017-02-19T01:06:15.863Z,96.09
2017-02-19T01:07:16.382Z,96.26
2017-02-19T01:08:16.934Z,96.13
2017-02-19T01:09:17.447Z,95.47
2017-02-19T01:10:18.007Z,94.86
2017-02-19T01:11:18.504Z,94.59
2017-02-19T01:12:19.038Z,94.40
2017-02-19T01:13:19.564Z,94.12
2017-02-19T01:14:20.106Z,93.72
2017-02-19T01:15:20.628Z,93.37
2017-02-19T01:16:21.158Z,93.32
2017-02-19T01:17:21.685Z,94.56
2017-02-19T01:18:22.222Z,95.39
2017-02-19T01:19:22.751Z,96.15
2017-02-19T01:20:23.274Z,96.31
2017-02-19T01:21:23.807Z,96.28
2017-02-19T01:22:24.347Z,96.47
2017-02-19T01:23:24.875Z,96.58
2017-02-19T01:24:25.413Z,96.83
2017-02-19T01:25:25.933Z,97.02
2017-02-19T01:26:26.617Z,97.12
2017-02-19T01:27:27.000Z,97.23
2017-02-19T01:28:27.535Z,97.23
2017-02-19T01:29:28.062Z,97.21
2017-02-19T01:30:28.591Z,97.42
2017-02-19T01:31:29.127Z,97.42
2017-02-19T01:32:29.660Z,97.50
2017-02-19T01:33:30.187Z,97.64
2017-02-19T01:34:30.866Z,97.85
2017-02-19T01:35:31.251Z,97.77
2017-02-19T01:36:31.784Z,97.72
2017-02-19T01:37:32.317Z,97.88
2017-02-19T01:38:32.854Z,98.18
2017-02-19T01:39:33.387Z,98.15
2017-02-19T01:40:33.916Z,98.23
2017-02-19T01:41:34.748Z,98.18
2017-02-19T01:42:34.974Z,98.18
2017-02-19T01:43:35.515Z,98.12
2017-02-19T01:44:36.186Z,98.10
2017-02-19T01:45:36.568Z,97.93
2017-02-19T01:46:37.096Z,97.85
2017-02-19T01:47:37.629Z,97.80
2017-02-19T01:48:38.305Z,97.69
2017-02-19T01:49:38.687Z,97.55
2017-02-19T01:50:39.366Z,97.23
2017-02-19T01:51:39.748Z,96.96
2017-02-19T01:52:40.277Z,96.34
2017-02-19T01:53:40.810Z,96.02
2017-02-19T01:54:41.356Z,95.85
2017-02-19T01:55:41.872Z,95.83
2017-02-19T01:56:42.401Z,95.80
2017-02-19T01:57:42.947Z,95.61
2017-02-19T01:58:43.464Z,95.98
2017-02-19T01:59:43.999Z,96.28
2017-02-19T02:00:44.522Z,96.17
2017-02-19T02:01:45.060Z,96.17
2017-02-19T02:02:45.597Z,96.34
2017-02-19T02:03:46.124Z,96.23
2017-02-19T02:04:46.646Z,95.98
2017-02-19T02:05:47.175Z,95.94
2017-02-19T02:06:47.713Z,95.96
2017-02-19T02:07:48.236Z,95.77
2017-02-19T02:08:48.765Z,95.53
2017-02-19T02:09:49.297Z,95.39
2017-02-19T02:10:49.834Z,95.31
2017-02-19T02:11:50.360Z,95.34
2017-02-19T02:12:50.893Z,95.58
2017-02-19T02:13:51.428Z,95.39
2017-02-19T02:14:51.962Z,95.15
2017-02-19T02:15:52.489Z,95.01
2017-02-19T02:16:53.021Z,94.88
2017-02-19T02:17:53.566Z,94.64
2017-02-19T02:18:54.090Z,94.72
2017-02-19T02:19:54.627Z,95.12
2017-02-19T02:20:55.313Z,95.12
2017-02-19T02:21:55.692Z,95.10
2017-02-19T02:22:56.228Z,94.88
2017-02-19T02:23:56.748Z,94.99
2017-02-19T02:24:57.279Z,95.07
2017-02-19T02:25:57.810Z,95.01
2017-02-19T02:26:58.343Z,94.80
2017-02-19T02:27:58.870Z,94.40
2017-02-19T02:28:59.403Z,94.10
2017-02-19T02:29:59.929Z,93.83
2017-02-19T02:31:00.461Z,93.96
2017-02-19T02:32:00.993Z,94.10
2017-02-19T02:33:01.522Z,94.34
2017-02-19T02:34:02.051Z,94.64
2017-02-19T02:35:02.580Z,94.77
2017-02-19T02:36:03.114Z,94.83
2017-02-19T02:37:03.635Z,95.10
2017-02-19T02:38:04.177Z,95.42
2017-02-19T02:39:04.711Z,95.66
2017-02-19T02:40:05.234Z,96.36
2017-02-19T02:41:05.764Z,96.61
2017-02-19T02:42:06.293Z,96.61
2017-02-19T02:43:06.824Z,96.34
2017-02-19T02:44:07.365Z,95.85
2017-02-19T02:45:07.888Z,95.61
2017-02-19T02:46:08.418Z,95.83
2017-02-19T02:47:08.952Z,95.61
2017-02-19T02:48:09.478Z,95.61
2017-02-19T02:49:10.008Z,95.37
2017-02-19T02:50:10.538Z,95.31
2017-02-19T02:51:11.067Z,95.01
2017-02-19T02:52:11.601Z,95.01
2017-02-19T02:53:12.132Z,95.61
2017-02-19T02:54:12.663Z,95.98
2017-02-19T02:55:13.192Z,96.50
2017-02-19T02:56:13.722Z,96.74
2017-02-19T02:57:14.254Z,96.93
2017-02-19T02:58:14.786Z,97.07
2017-02-19T02:59:15.315Z,97.34
2017-02-19T03:00:15.858Z,97.34
2017-02-19T03:01:16.539Z,97.50
2017-02-19T03:02:16.924Z,97.74
2017-02-19T03:03:17.456Z,98.02
2017-02-19T03:04:17.994Z,98.07
2017-02-19T03:05:18.526Z,98.18
2017-02-19T03:06:19.063Z,98.07
2017-02-19T03:07:19.592Z,98.07
2017-02-19T03:08:20.119Z,97.99
2017-02-19T03:09:20.648Z,97.85
2017-02-19T03:10:21.178Z,97.72
2017-02-19T03:11:21.707Z,97.58
2017-02-19T03:12:22.385Z,97.53
2017-02-19T03:13:22.774Z,97.39
2017-02-19T03:14:23.301Z,97.28
2017-02-19T03:15:23.826Z,97.23
2017-02-19T03:16:24.363Z,97.12
2017-02-19T03:17:24.889Z,97.21
2017-02-19T03:18:25.422Z,97.21
2017-02-19T03:19:25.952Z,97.07
2017-02-19T03:20:26.482Z,97.02
2017-02-19T03:21:27.018Z,96.96
2017-02-19T03:22:27.546Z,96.93
2017-02-19T03:23:28.071Z,97.02
2017-02-19T03:24:28.606Z,96.93
2017-02-19T03:25:29.150Z,96.80
2017-02-19T03:26:29.672Z,96.45
2017-02-19T03:27:30.203Z,96.15
2017-02-19T03:28:30.737Z,95.98
2017-02-19T03:29:31.265Z,95.98
2017-02-19T03:30:31.790Z,95.96
2017-02-19T03:31:32.318Z,95.75
2017-02-19T03:32:32.848Z,95.69
2017-02-19T03:33:33.379Z,96.20
2017-02-19T03:34:33.907Z,96.66
2017-02-19T03:35:34.594Z,96.99
2017-02-19T03:36:34.977Z,96.96
2017-02-19T03:37:35.501Z,96.72
2017-02-19T03:38:36.029Z,96.42
2017-02-19T03:39:36.560Z,96.36
2017-02-19T03:40:37.125Z,96.36
2017-02-19T03:41:37.633Z,96.36
2017-02-19T03:42:38.158Z,96.07
2017-02-19T03:43:38.697Z,95.85
2017-02-19T03:44:39.227Z,95.53
2017-02-19T03:45:39.764Z,95.34
2017-02-19T03:46:40.293Z,95.69
2017-02-19T03:47:40.833Z,95.77
2017-02-19T03:48:41.358Z,96.04
2017-02-19T03:49:41.886Z,96.28
2017-02-19T03:50:42.422Z,96.36
2017-02-19T03:51:42.978Z,96.15
2017-02-19T03:52:43.487Z,95.88
2017-02-19T03:53:44.035Z,95.45
2017-02-19T03:54:44.545Z,94.64
2017-02-19T03:55:45.080Z,94.37
2017-02-19T03:56:45.609Z,94.12
2017-02-19T03:57:46.141Z,94.56
2017-02-19T03:58:46.672Z,94.64
2017-02-19T03:59:47.206Z,93.70
2017-02-19T04:00:47.735Z,92.43
2017-02-19T04:01:48.264Z,91.97
2017-02-19T04:02:48.791Z,91.47
2017-02-19T04:03:49.334Z,91.22
2017-02-19T04:04:49.856Z,91.30
2017-02-19T04:05:50.382Z,92.05
2017-02-19T04:06:50.917Z,92.97
2017-02-19T04:07:51.451Z,93.83
2017-02-19T04:08:51.984Z,93.81
2017-02-19T04:09:52.662Z,93.99
2017-02-19T04:10:53.046Z,94.86
2017-02-19T04:11:53.724Z,95.42
2017-02-19T04:12:54.110Z,95.85
2017-02-19T04:13:54.639Z,96.28
2017-02-19T04:14:55.173Z,96.13
2017-02-19T04:15:55.703Z,95.98
2017-02-19T04:16:56.232Z,95.94
2017-02-19T04:17:56.762Z,95.77
2017-02-19T04:18:57.297Z,95.72
2017-02-19T04:19:58.122Z,95.56
2017-02-19T04:20:58.355Z,95.20
2017-02-19T04:21:58.887Z,95.47
2017-02-19T04:22:59.421Z,95.64
2017-02-19T04:23:59.959Z,95.47
2017-02-19T04:25:00.498Z,95.50
2017-02-19T04:26:01.025Z,95.77
2017-02-19T04:27:01.563Z,95.75
2017-02-19T04:28:02.092Z,95.61
2017-02-19T04:29:02.630Z,95.31
2017-02-19T04:30:03.156Z,95.15
2017-02-19T04:31:03.690Z,94.83
2017-02-19T04:32:04.218Z,94.34
2017-02-19T04:33:04.751Z,94.15
2017-02-19T04:34:05.280Z,93.89
2017-02-19T04:35:05.816Z,94.21
2017-02-19T04:36:06.346Z,94.75
2017-02-19T04:37:06.874Z,95.04
2017-02-19T04:38:07.404Z,95.07
2017-02-19T04:39:07.942Z,95.04
2017-02-19T04:40:08.466Z,95.37
2017-02-19T04:41:09.002Z,95.45
2017-02-19T04:42:09.531Z,95.45
2017-02-19T04:43:10.210Z,95.50
2017-02-19T04:44:10.605Z,95.23
2017-02-19T04:45:11.132Z,95.12
2017-02-19T04:46:11.662Z,95.04
2017-02-19T04:47:12.210Z,95.39
2017-02-19T04:48:12.728Z,95.69
2017-02-19T04:49:13.255Z,95.66
2017-02-19T04:50:13.790Z,95.69
2017-02-19T04:51:14.321Z,95.75
2017-02-19T04:52:14.851Z,95.72
2017-02-19T04:53:15.380Z,95.61
2017-02-19T04:54:15.909Z,95.58
2017-02-19T04:55:16.439Z,95.42
2017-02-19T04:56:16.984Z,95.56
2017-02-19T04:57:17.507Z,95.83
2017-02-19T04:58:18.238Z,95.88
2017-02-19T04:59:18.574Z,96.17
2017-02-19T05:00:19.107Z,96.47
2017-02-19T05:01:19.633Z,96.80
2017-02-19T05:02:20.161Z,96.80
2017-02-19T05:03:20.694Z,96.80
2017-02-19T05:04:21.241Z,96.74
2017-02-19T05:05:21.778Z,96.66
2017-02-19T05:06:22.292Z,96.58
2017-02-19T05:07:22.834Z,96.42
2017-02-19T05:08:23.362Z,96.02
2017-02-19T05:09:23.898Z,96.02
2017-02-19T05:10:24.431Z,95.96
2017-02-19T05:11:24.958Z,95.91
2017-02-19T05:12:25.488Z,95.91
2017-02-19T05:13:26.026Z,96.04
2017-02-19T05:14:26.555Z,96.09
2017-02-19T05:15:27.089Z,96.17
2017-02-19T05:16:27.617Z,96.17
2017-02-19T05:17:28.149Z,96.26
2017-02-19T05:18:28.680Z,96.55
2017-02-19T05:19:29.209Z,96.69
2017-02-19T05:20:29.742Z,96.77
2017-02-19T05:21:30.286Z,96.80
2017-02-19T05:22:30.800Z,96.85
2017-02-19T05:23:31.487Z,96.80
2017-02-19T05:24:31.873Z,96.69
2017-02-19T05:25:32.431Z,96.61
2017-02-19T05:26:32.965Z,96.42
2017-02-19T05:27:33.464Z,96.36
2017-02-19T05:28:33.994Z,96.26
2017-02-19T05:29:34.530Z,96.07
2017-02-19T05:30:35.061Z,95.98
2017-02-19T05:31:35.598Z,95.80
2017-02-19T05:32:36.120Z,95.69
2017-02-19T05:33:36.652Z,95.56
2017-02-19T05:34:37.187Z,95.53
2017-02-19T05:35:37.716Z,95.56
2017-02-19T05:36:38.394Z,95.61
2017-02-19T05:37:38.992Z,95.83
2017-02-19T05:38:39.329Z,96.13
2017-02-19T05:39:39.836Z,96.26
2017-02-19T05:40:40.367Z,96.13
2017-02-19T05:41:40.902Z,96.17
2017-02-19T05:42:41.431Z,96.31
2017-02-19T05:43:41.962Z,96.34
2017-02-19T05:44:42.495Z,96.26
2017-02-19T05:45:43.023Z,96.28
2017-02-19T05:46:43.557Z,96.26
2017-02-19T05:47:44.090Z,96.23
2017-02-19T05:48:44.630Z,96.17
2017-02-19T05:49:45.167Z,96.04
2017-02-19T05:50:45.694Z,96.07
2017-02-19T05:51:46.228Z,95.96
2017-02-19T05:52:46.757Z,95.88
2017-02-19T05:53:47.294Z,95.88
2017-02-19T05:54:47.819Z,95.61
2017-02-19T05:55:48.355Z,95.50
2017-02-19T05:56:48.886Z,95.61
2017-02-19T05:57:49.416Z,95.64
2017-02-19T05:58:49.960Z,95.50
2017-02-19T05:59:50.476Z,95.20
2017-02-19T06:00:51.017Z,94.86
2017-02-19T06:01:51.540Z,94.75
2017-02-19T06:02:52.077Z,94.69
2017-02-19T06:03:52.598Z,95.28
2017-02-19T06:04:53.135Z,95.66
2017-02-19T06:05:53.668Z,95.96
2017-02-19T06:06:54.192Z,96.02
2017-02-19T06:07:54.726Z,96.17
2017-02-19T06:08:55.257Z,96.20
2017-02-19T06:09:55.788Z,96.36
2017-02-19T06:10:56.316Z,96.42
2017-02-19T06:11:56.847Z,96.39
2017-02-19T06:12:57.390Z,96.36
2017-02-19T06:13:57.914Z,96.23
2017-02-19T06:14:58.444Z,96.23
2017-02-19T06:15:58.984Z,96.26
2017-02-19T06:16:59.499Z,96.20
2017-02-19T06:18:00.181Z,96.07
2017-02-19T06:19:00.569Z,95.96
2017-02-19T06:20:01.100Z,95.85
2017-02-19T06:21:01.645Z,95.75
2017-02-19T06:22:02.166Z,95.66
2017-02-19T06:23:02.704Z,95.34
2017-02-19T06:24:03.231Z,94.91
2017-02-19T06:25:03.764Z,94.77
2017-02-19T06:26:04.294Z,94.77
2017-02-19T06:27:04.820Z,94.91
2017-02-19T06:28:05.354Z,95.01
2017-02-19T06:29:05.887Z,95.12
2017-02-19T06:30:06.423Z,95.12
2017-02-19T06:31:07.112Z,95.18
2017-02-19T06:32:07.491Z,95.34
2017-02-19T06:33:08.027Z,95.53
2017-02-19T06:34:08.556Z,95.56
2017-02-19T06:35:09.087Z,95.47
2017-02-19T06:36:09.621Z,95.39
2017-02-19T06:37:10.165Z,95.37
2017-02-19T06:38:10.687Z,95.58
2017-02-19T06:39:11.215Z,95.53
2017-02-19T06:40:11.747Z,95.80
2017-02-19T06:41:12.280Z,95.96
2017-02-19T06:42:12.804Z,96.09
2017-02-19T06:43:13.338Z,96.15
2017-02-19T06:44:13.866Z,96.17
2017-02-19T06:45:14.407Z,96.17
2017-02-19T06:46:14.936Z,96.23
2017-02-19T06:47:15.456Z,96.17
2017-02-19T06:48:15.989Z,96.28
2017-02-19T06:49:16.529Z,96.36
2017-02-19T06:50:17.078Z,96.39
2017-02-19T06:51:17.578Z,96.42
2017-02-19T06:52:18.114Z,96.42
2017-02-19T06:53:18.795Z,96.34
2017-02-19T06:54:19.176Z,96.13
2017-02-19T06:55:19.710Z,95.88
2017-02-19T06:56:20.242Z,95.83
2017-02-19T06:57:21.068Z,95.72
2017-02-19T06:58:21.302Z,95.50
2017-02-19T06:59:21.844Z,95.50
2017-02-19T07:00:22.363Z,95.53
2017-02-19T07:01:22.897Z,95.61
2017-02-19T07:02:23.429Z,95.47
2017-02-19T07:03:23.954Z,95.39
2017-02-19T07:04:24.490Z,95.31
2017-02-19T07:05:25.017Z,95.56
2017-02-19T07:06:25.554Z,95.77
2017-02-19T07:07:26.240Z,95.88
2017-02-19T07:08:26.628Z,95.80
2017-02-19T07:09:27.164Z,95.64
2017-02-19T07:10:27.709Z,95.50
2017-02-19T07:11:28.249Z,95.50
2017-02-19T07:12:28.788Z,95.37
2017-02-19T07:13:29.327Z,95.34
2017-02-19T07:14:29.853Z,95.07
2017-02-19T07:15:30.384Z,94.93
2017-02-19T07:16:30.918Z,94.77
2017-02-19T07:17:31.455Z,94.67
2017-02-19T07:18:31.987Z,94.59
2017-02-19T07:19:32.512Z,94.42
2017-02-19T07:20:33.047Z,94.34
2017-02-19T07:21:33.575Z,94.10
2017-02-19T07:22:34.109Z,94.21
2017-02-19T07:23:34.639Z,94.34
2017-02-19T07:24:35.165Z,94.45
2017-02-19T07:25:35.699Z,94.48
2017-02-19T07:26:36.260Z,94.53
2017-02-19T07:27:36.757Z,94.48
2017-02-19T07:28:37.289Z,94.61
2017-02-19T07:29:37.822Z,94.61
2017-02-19T07:30:38.347Z,94.42
2017-02-19T07:31:38.893Z,94.45
2017-02-19T07:32:39.408Z,94.56
2017-02-19T07:33:39.948Z,94.48
2017-02-19T07:34:40.470Z,94.40
2017-02-19T07:35:41.000Z,94.15
2017-02-19T07:36:41.533Z,93.89
2017-02-19T07:37:42.361Z,93.81
2017-02-19T07:38:42.594Z,93.62
2017-02-19T07:39:43.122Z,93.51
2017-02-19T07:40:43.653Z,93.45
2017-02-19T07:41:44.184Z,93.37
2017-02-19T07:42:44.714Z,92.97
2017-02-19T07:43:45.254Z,93.05
2017-02-19T07:44:45.772Z,92.65
2017-02-19T07:45:46.298Z,92.16
2017-02-19T07:46:46.833Z,92.22
2017-02-19T07:47:47.363Z,91.79
2017-02-19T07:48:47.893Z,91.73
2017-02-19T07:49:48.422Z,91.73
2017-02-19T07:50:48.952Z,91.14
2017-02-19T07:51:49.484Z,90.74
2017-02-19T07:52:50.018Z,91.20
2017-02-19T07:53:50.549Z,91.20
2017-02-19T07:54:51.085Z,90.77
2017-02-19T07:55:51.630Z,90.93
2017-02-19T07:56:52.152Z,90.77
2017-02-19T07:57:52.704Z,90.39
2017-02-19T07:58:53.226Z,90.45
2017-02-19T07:59:53.746Z,90.71
2017-02-19T08:00:54.283Z,90.74
2017-02-19T08:01:54.963Z,90.77
2017-02-19T08:02:55.344Z,90.96
2017-02-19T08:03:55.875Z,91.01
2017-02-19T08:04:56.409Z,91.07
2017-02-19T08:05:56.939Z,91.11
2017-02-19T08:06:57.469Z,91.01
2017-02-19T08:07:58.004Z,90.74
2017-02-19T08:08:58.531Z,90.98
2017-02-19T08:09:59.065Z,91.17
2017-02-19T08:10:59.596Z,90.74
2017-02-19T08:12:00.127Z,90.66
2017-02-19T08:13:00.657Z,91.09
2017-02-19T08:14:01.191Z,91.68
2017-02-19T08:15:01.723Z,91.47
2017-02-19T08:16:02.329Z,91.20
2017-02-19T08:17:02.929Z,91.68
2017-02-19T08:18:03.313Z,91.47
2017-02-19T08:19:03.844Z,91.17
2017-02-19T08:20:04.376Z,91.68
2017-02-19T08:21:04.911Z,91.79
2017-02-19T08:22:05.442Z,91.71
2017-02-19T08:23:05.968Z,91.36
2017-02-19T08:24:06.500Z,91.49
2017-02-19T08:25:07.033Z,91.41
2017-02-19T08:26:07.555Z,91.30
2017-02-19T08:27:08.088Z,91.01
2017-02-19T08:28:08.623Z,90.18
2017-02-19T08:29:10.069Z,90.20
2017-02-19T08:30:09.687Z,90.42
2017-02-19T08:31:10.216Z,90.15
2017-02-19T08:32:10.888Z,90.07
2017-02-19T08:33:11.266Z,89.72
2017-02-19T08:34:11.795Z,89.45
2017-02-19T08:35:12.330Z,89.22
2017-02-19T08:36:12.878Z,89.16
2017-02-19T08:37:13.402Z,89.59
2017-02-19T08:38:13.945Z,89.83
2017-02-19T08:39:14.476Z,89.62
2017-02-19T08:40:15.003Z,90.26
2017-02-19T08:41:15.540Z,89.70
2017-02-19T08:42:16.073Z,90.02
2017-02-19T08:43:16.633Z,90.28
2017-02-19T08:44:17.131Z,89.88
2017-02-19T08:45:17.663Z,89.48
2017-02-19T08:46:18.191Z,90.13
2017-02-19T08:47:18.722Z,89.51
2017-02-19T08:48:19.401Z,89.59
2017-02-19T08:49:19.783Z,89.06
2017-02-19T08:50:20.326Z,88.87
2017-02-19T08:51:20.860Z,89.59
2017-02-19T08:52:21.404Z,89.19
2017-02-19T08:53:21.934Z,89.24
2017-02-19T08:54:22.464Z,89.24
2017-02-19T08:55:23.160Z,88.09
2017-02-19T08:56:23.676Z,88.23
2017-02-19T08:57:24.055Z,88.04
2017-02-19T08:58:24.585Z,89.24
2017-02-19T08:59:25.115Z,88.46
2017-02-19T09:00:25.647Z,87.88
2017-02-19T09:01:26.179Z,88.50
2017-02-19T09:02:26.717Z,89.08
2017-02-19T09:03:27.241Z,87.29
2017-02-19T09:04:27.778Z,88.20
2017-02-19T09:05:28.306Z,88.04
2017-02-19T09:06:28.836Z,88.52
2017-02-19T09:07:29.365Z,87.59
2017-02-19T09:08:29.900Z,87.56
2017-02-19T09:09:30.430Z,87.59
2017-02-19T09:10:30.958Z,87.98
2017-02-19T09:11:31.498Z,86.87
2017-02-19T09:12:32.033Z,87.45
2017-02-19T09:13:32.566Z,88.52
2017-02-19T09:14:33.089Z,87.45
2017-02-19T09:15:33.616Z,85.05
2017-02-19T09:16:34.145Z,86.91
2017-02-19T09:17:34.683Z,86.01
2017-02-19T09:18:35.236Z,87.00
2017-02-19T09:19:35.752Z,85.27
2017-02-19T09:20:36.283Z,87.00
2017-02-19T09:21:36.816Z,85.08
2017-02-19T09:22:37.348Z,85.13
2017-02-19T09:23:37.877Z,84.58
2017-02-19T09:24:38.406Z,85.30
2017-02-19T09:25:38.938Z,84.76
2017-02-19T09:26:39.468Z,85.16
2017-02-19T09:27:40.000Z,85.64
2017-02-19T09:28:40.530Z,83.59
2017-02-19T09:29:41.061Z,85.13
2017-02-19T09:30:41.586Z,84.68
2017-02-19T09:31:42.123Z,82.67
2017-02-19T09:32:42.653Z,82.61
2017-02-19T09:33:43.181Z,85.16
2017-02-19T09:34:43.810Z,83.01
2017-02-19T09:35:44.254Z,83.01
2017-02-19T09:36:44.769Z,81.26
2017-02-19T09:37:45.303Z,82.03
2017-02-19T09:38:45.836Z,80.84
2017-02-19T09:39:46.362Z,81.10
2017-02-19T09:40:46.894Z,81.92
2017-02-19T09:41:47.428Z,82.08
2017-02-19T09:42:47.955Z,83.14
2017-02-19T09:43:48.489Z,80.29
2017-02-19T09:44:49.017Z,82.59
2017-02-19T09:45:49.693Z,81.95
2017-02-19T09:46:50.076Z,82.64
2017-02-19T09:47:50.757Z,82.75
2017-02-19T09:48:51.153Z,81.58
2017-02-19T09:49:51.669Z,82.21
2017-02-19T09:50:52.205Z,81.92
2017-02-19T09:51:52.740Z,82.16
2017-02-19T09:52:53.420Z,81.45
2017-02-19T09:53:53.805Z,81.32
2017-02-19T09:54:54.331Z,81.10
2017-02-19T09:55:54.865Z,81.42
2017-02-19T09:56:55.397Z,81.13
2017-02-19T09:57:55.927Z,81.42
2017-02-19T09:58:56.457Z,81.05
2017-02-19T09:59:56.997Z,81.82
2017-02-19T10:00:57.531Z,81.68
2017-02-19T10:01:58.063Z,81.68
2017-02-19T10:02:58.596Z,81.79
2017-02-19T10:03:59.128Z,82.19
2017-02-19T10:04:59.675Z,82.19
2017-02-19T10:06:00.194Z,81.90
2017-02-19T10:07:00.723Z,82.03
2017-02-19T10:08:01.259Z,81.68
2017-02-19T10:09:01.940Z,81.92
2017-02-19T10:10:02.349Z,81.63
2017-02-19T10:11:02.860Z,81.29
2017-02-19T10:12:03.383Z,81.00
2017-02-19T10:13:03.907Z,80.39
2017-02-19T10:14:04.742Z,81.42
2017-02-19T10:15:04.990Z,81.00
2017-02-19T10:16:05.501Z,80.89
2017-02-19T10:17:06.181Z,81.45
2017-02-19T10:18:06.566Z,80.13
2017-02-19T10:19:07.103Z,80.21
2017-02-19T10:20:07.627Z,80.15
2017-02-19T10:21:08.309Z,79.13
2017-02-19T10:22:08.690Z,79.99
2017-02-19T10:23:09.250Z,79.36
2017-02-19T10:24:09.757Z,80.31
2017-02-19T10:25:10.283Z,78.39
2017-02-19T10:26:10.813Z,78.94
2017-02-19T10:27:11.492Z,77.59
2017-02-19T10:28:11.872Z,77.59
2017-02-19T10:29:12.416Z,76.62
2017-02-19T10:30:12.933Z,77.36
2017-02-19T10:31:13.464Z,77.86
2017-02-19T10:32:14.001Z,77.57
2017-02-19T10:33:14.528Z,77.44
2017-02-19T10:34:15.060Z,77.94
2017-02-19T10:35:15.598Z,77.44
2017-02-19T10:36:16.128Z,77.83
2017-02-19T10:37:16.655Z,77.49
2017-02-19T10:38:17.188Z,78.33
2017-02-19T10:39:17.713Z,77.28
2017-02-19T10:40:18.250Z,77.15
2017-02-19T10:41:18.798Z,77.04
2017-02-19T10:42:19.322Z,78.20
2017-02-19T10:43:19.856Z,77.86
2017-02-19T10:44:20.392Z,77.81
2017-02-19T10:45:20.929Z,77.44
2017-02-19T10:46:21.462Z,77.89
2017-02-19T10:47:21.995Z,77.97
2017-02-19T10:48:22.527Z,77.73
2017-02-19T10:49:23.061Z,77.47
2017-02-19T10:50:23.593Z,78.47
2017-02-19T10:51:24.119Z,78.47
2017-02-19T10:52:24.661Z,78.23
2017-02-19T10:53:25.480Z,78.20
2017-02-19T10:54:25.710Z,78.20
2017-02-19T10:55:26.242Z,78.05
2017-02-19T10:56:26.774Z,78.41
2017-02-19T10:57:27.308Z,78.94
2017-02-19T10:58:27.839Z,78.78
2017-02-19T10:59:28.377Z,78.54
2017-02-19T11:00:28.901Z,78.44
2017-02-19T11:01:29.430Z,78.75
2017-02-19T11:02:29.963Z,78.36
2017-02-19T11:03:30.490Z,79.10
2017-02-19T11:04:31.032Z,79.36
2017-02-19T11:05:31.559Z,78.47
2017-02-19T11:06:32.088Z,79.31
2017-02-19T11:07:32.629Z,78.99
2017-02-19T11:08:33.156Z,78.89
2017-02-19T11:09:33.683Z,79.23
2017-02-19T11:10:34.363Z,78.33
2017-02-19T11:11:34.895Z,78.62
2017-02-19T11:12:35.276Z,78.97
2017-02-19T11:13:35.811Z,78.86
2017-02-19T11:14:36.341Z,78.73
2017-02-19T11:15:36.873Z,78.89
2017-02-19T11:16:37.401Z,79.31
2017-02-19T11:17:37.936Z,78.86
2017-02-19T11:18:38.467Z,78.67
2017-02-19T11:19:38.994Z,78.49
2017-02-19T11:20:39.525Z,78.47
2017-02-19T11:21:40.078Z,78.39
2017-02-19T11:22:40.591Z,78.12
2017-02-19T11:23:41.139Z,78.39
2017-02-19T11:24:41.663Z,78.39
2017-02-19T11:25:42.224Z,77.94
2017-02-19T11:26:42.735Z,78.36
2017-02-19T11:27:43.270Z,78.36
2017-02-19T11:28:43.802Z,78.39
2017-02-19T11:29:44.344Z,77.49
2017-02-19T11:30:44.868Z,77.78
2017-02-19T11:31:45.551Z,77.57
2017-02-19T11:32:46.095Z,77.78
2017-02-19T11:33:46.462Z,77.70
2017-02-19T11:34:46.991Z,77.65
2017-02-19T11:35:47.516Z,76.75
2017-02-19T11:36:48.048Z,77.33
2017-02-19T11:37:48.581Z,77.47
2017-02-19T11:38:49.109Z,76.83
2017-02-19T11:39:49.643Z,76.12
2017-02-19T11:40:50.170Z,76.57
2017-02-19T11:41:50.855Z,76.34
2017-02-19T11:42:51.232Z,76.07
2017-02-19T11:43:51.761Z,76.73
2017-02-19T11:44:52.292Z,76.26
2017-02-19T11:45:52.828Z,75.99
2017-02-19T11:46:53.358Z,75.89
2017-02-19T11:47:53.886Z,75.86
2017-02-19T11:48:54.423Z,75.65
2017-02-19T11:49:54.950Z,76.04
2017-02-19T11:50:55.500Z,76.20
2017-02-19T11:51:56.018Z,76.04
2017-02-19T11:52:56.548Z,75.44
2017-02-19T11:53:57.075Z,75.73
2017-02-19T11:54:57.602Z,75.23
2017-02-19T11:55:58.143Z,75.44
2017-02-19T11:56:58.664Z,75.62
2017-02-19T11:57:59.192Z,75.89
2017-02-19T11:58:59.726Z,75.99
2017-02-19T12:00:00.264Z,75.76
2017-02-19T12:01:00.783Z,75.60
2017-02-19T12:02:01.309Z,75.49
2017-02-19T12:03:01.841Z,75.57
2017-02-19T12:04:02.375Z,75.26
2017-02-19T12:05:02.911Z,75.92
2017-02-19T12:06:03.456Z,75.94
2017-02-19T12:07:03.984Z,76.04
2017-02-19T12:08:04.516Z,76.78
2017-02-19T12:09:05.052Z,76.70
2017-02-19T12:10:05.737Z,76.26
2017-02-19T12:11:06.118Z,75.47
2017-02-19T12:12:06.825Z,77.62
2017-02-19T12:13:07.183Z,77.25
2017-02-19T12:14:07.718Z,78.44
2017-02-19T12:15:08.245Z,78.41
2017-02-19T12:16:08.796Z,78.91
2017-02-19T12:17:09.314Z,78.25
2017-02-19T12:18:09.840Z,79.20
2017-02-19T12:19:10.369Z,77.44
2017-02-19T12:20:10.914Z,76.67
2017-02-19T12:21:11.433Z,77.51
2017-02-19T12:22:11.966Z,76.20
2017-02-19T12:23:12.488Z,77.39
2017-02-19T12:24:13.027Z,75.76
2017-02-19T12:25:13.553Z,74.73
2017-02-19T12:26:14.082Z,74.58
2017-02-19T12:27:14.612Z,76.10
2017-02-19T12:29:15.679Z,75.02
2017-02-19T12:30:16.209Z,72.48
2017-02-19T12:31:16.747Z,71.67
2017-02-19T12:32:17.270Z,73.69
2017-02-19T12:33:17.803Z,71.34
2017-02-19T12:34:18.333Z,69.57
2017-02-19T12:35:18.867Z,69.12
2017-02-19T12:36:19.400Z,69.51
2017-02-19T12:37:19.929Z,70.40
2017-02-19T12:38:20.456Z,71.15
2017-02-19T12:39:20.998Z,70.87
2017-02-19T12:40:21.555Z,70.09
2017-02-19T12:41:22.049Z,70.24
2017-02-19T12:42:22.596Z,70.32
2017-02-19T12:43:23.106Z,70.95
2017-02-19T12:44:23.634Z,68.87
2017-02-19T12:45:24.171Z,71.60
2017-02-19T12:46:24.706Z,71.15
2017-02-19T12:47:25.270Z,70.68
2017-02-19T12:48:25.770Z,71.60
2017-02-19T12:49:26.312Z,72.51
2017-02-19T12:50:26.850Z,71.83
2017-02-19T12:51:27.528Z,73.08
2017-02-19T12:52:27.921Z,72.93
2017-02-19T12:53:28.443Z,73.16
2017-02-19T12:54:28.978Z,73.87
2017-02-19T12:55:29.509Z,72.56
2017-02-19T12:56:30.046Z,72.48
2017-02-19T12:57:30.578Z,73.06
2017-02-19T12:58:31.106Z,72.38
2017-02-19T12:59:31.638Z,73.42
2017-02-19T13:00:32.183Z,73.95